Isle of Iona, United Kingdom
Current Conditions -  °F | °C
As of 4:50 AM on Thursday 23 Oct 2014 (Local Time) from EGPU Reporting Station
Broken Clouds Broken Clouds  
Wind Chill: 55°   Ceiling: 800
Heat Index: 55°   Visibility: 4mi
Dew Point: 54°   Wind: 23mph
Humidity: 94%   Direction: 240°WSW
Pressure: 29.74"   Gusts: NA
Location:  56.33°N, 6.39°W
Report Text: EGPU 230350Z AUTO 24020KT 200V270 6000 BKN008/// SCT017/// 13/12 Q1007
Loading
Personal Weather Stations






























Interactive Weather Map
Tropical Storm Tracking
New forecast layout! Learn more

10-Day Weather Forecast

Advertisements
Track Severe Weather on mobile